createdAt,value
2016-07-15T00:00:43.366Z,21.64
2016-07-15T00:01:43.364Z,21.62
2016-07-15T00:02:43.358Z,21.61
2016-07-15T00:03:43.362Z,21.64
2016-07-15T00:04:43.359Z,21.66
2016-07-15T00:05:43.363Z,21.76
2016-07-15T00:06:43.366Z,21.67
2016-07-15T00:07:43.571Z,21.64
2016-07-15T00:08:43.353Z,21.61
2016-07-15T00:09:43.356Z,21.67
2016-07-15T00:10:43.368Z,21.62
2016-07-15T00:11:43.355Z,21.71
2016-07-15T00:12:43.357Z,21.66
2016-07-15T00:13:43.557Z,21.62
2016-07-15T00:14:43.365Z,21.58
2016-07-15T00:15:43.358Z,21.64
2016-07-15T00:16:43.352Z,21.66
2016-07-15T00:17:43.347Z,21.68
2016-07-15T00:18:43.349Z,21.61
2016-07-15T00:19:43.353Z,21.58
2016-07-15T00:20:43.344Z,21.64
2016-07-15T00:21:43.346Z,21.59
2016-07-15T00:22:43.347Z,21.49
2016-07-15T00:23:43.345Z,21.58
2016-07-15T00:24:43.341Z,21.59
2016-07-15T00:25:43.350Z,21.53
2016-07-15T00:26:43.543Z,21.53
2016-07-15T00:27:43.366Z,21.59
2016-07-15T00:28:43.341Z,21.55
2016-07-15T00:29:43.349Z,21.51
2016-07-15T00:30:43.345Z,21.52
2016-07-15T00:31:43.347Z,21.56
2016-07-15T00:32:43.342Z,21.56
2016-07-15T00:33:43.343Z,21.55
2016-07-15T00:34:43.542Z,21.56
2016-07-15T00:35:43.338Z,21.51
2016-07-15T00:36:43.339Z,21.52
2016-07-15T00:37:43.334Z,21.51
2016-07-15T00:38:43.336Z,21.46
2016-07-15T00:39:43.530Z,21.49
2016-07-15T00:40:43.536Z,21.45
2016-07-15T00:41:43.330Z,21.4
2016-07-15T00:42:43.336Z,21.46
2016-07-15T00:43:43.333Z,21.38
2016-07-15T00:44:43.331Z,21.34
2016-07-15T00:45:43.332Z,21.33
2016-07-15T00:46:43.530Z,21.37
2016-07-15T00:47:43.329Z,21.38
2016-07-15T00:48:43.338Z,21.38
2016-07-15T00:49:43.539Z,21.37
2016-07-15T00:50:43.342Z,21.36
2016-07-15T00:51:43.327Z,21.31
2016-07-15T00:52:43.320Z,21.33
2016-07-15T00:53:43.330Z,21.36
2016-07-15T00:54:43.324Z,21.31
2016-07-15T00:55:43.321Z,21.28
2016-07-15T00:56:43.322Z,21.28
2016-07-15T00:57:43.319Z,21.28
2016-07-15T00:58:43.323Z,21.28
2016-07-15T00:59:43.327Z,21.19
2016-07-15T01:00:43.525Z,21.31
2016-07-15T01:01:43.531Z,21.27
2016-07-15T01:02:43.515Z,21.3
2016-07-15T01:03:43.321Z,21.3
2016-07-15T01:04:43.318Z,21.3
2016-07-15T01:05:43.318Z,21.27
2016-07-15T01:06:43.316Z,21.27
2016-07-15T01:07:43.317Z,21.22
2016-07-15T01:08:43.513Z,21.22
2016-07-15T01:09:43.314Z,21.25
2016-07-15T01:10:43.311Z,21.18
2016-07-15T01:11:43.310Z,21.15
2016-07-15T01:12:43.313Z,21.18
2016-07-15T01:13:43.324Z,21.16
2016-07-15T01:14:43.516Z,21.16
2016-07-15T01:15:43.303Z,21.21
2016-07-15T01:16:43.312Z,21.16
2016-07-15T01:17:43.325Z,21.13
2016-07-15T01:18:43.521Z,21.19
2016-07-15T01:19:43.304Z,21.18
2016-07-15T01:20:43.497Z,21.16
2016-07-15T01:21:43.303Z,21.08
2016-07-15T01:22:43.300Z,21.08
2016-07-15T01:23:43.298Z,21.06
2016-07-15T01:24:43.294Z,21.04
2016-07-15T01:25:43.305Z,21.06
2016-07-15T01:26:43.500Z,21.01
2016-07-15T01:27:43.299Z,21.06
2016-07-15T01:28:43.299Z,21.04
2016-07-15T01:29:43.298Z,20.98
2016-07-15T01:30:43.493Z,21.03
2016-07-15T01:31:43.296Z,21.06
2016-07-15T01:32:43.291Z,20.97
2016-07-15T01:33:43.294Z,21.01
2016-07-15T01:34:43.290Z,20.98
2016-07-15T01:35:43.484Z,21.06
2016-07-15T01:36:43.488Z,21
2016-07-15T01:37:43.288Z,20.98
2016-07-15T01:38:43.282Z,21.04
2016-07-15T01:39:43.285Z,21.04
2016-07-15T01:40:43.290Z,20.93
2016-07-15T01:41:43.287Z,20.93
2016-07-15T01:42:43.291Z,20.93
2016-07-15T01:43:43.281Z,20.94
2016-07-15T01:44:43.281Z,20.93
2016-07-15T01:45:43.297Z,20.97
2016-07-15T01:46:43.478Z,20.97
2016-07-15T01:47:43.315Z,20.94
2016-07-15T01:48:43.280Z,20.97
2016-07-15T01:49:43.276Z,20.97
2016-07-15T01:50:43.270Z,20.97
2016-07-15T01:51:43.273Z,20.91
2016-07-15T01:52:43.474Z,21
2016-07-15T01:53:43.275Z,20.94
2016-07-15T01:54:43.272Z,20.96
2016-07-15T01:55:43.276Z,21.01
2016-07-15T01:56:43.266Z,20.97
2016-07-15T01:57:43.264Z,20.96
2016-07-15T01:58:43.472Z,20.93
2016-07-15T01:59:43.289Z,20.93
2016-07-15T02:00:43.263Z,20.94
2016-07-15T02:01:43.263Z,20.91
2016-07-15T02:02:43.269Z,20.97
2016-07-15T02:03:43.267Z,20.94
2016-07-15T02:04:43.257Z,21
2016-07-15T02:05:43.261Z,20.93
2016-07-15T02:06:43.257Z,20.91
2016-07-15T02:07:43.256Z,20.93
2016-07-15T02:08:43.257Z,20.98
2016-07-15T02:09:43.253Z,20.93
2016-07-15T02:10:43.254Z,20.91
2016-07-15T02:11:43.259Z,20.97
2016-07-15T02:12:43.459Z,20.88
2016-07-15T02:13:43.255Z,20.78
2016-07-15T02:14:43.253Z,20.93
2016-07-15T02:15:43.251Z,20.85
2016-07-15T02:16:43.243Z,20.78
2016-07-15T02:17:43.258Z,20.81
2016-07-15T02:18:43.245Z,20.79
2016-07-15T02:19:43.259Z,20.83
2016-07-15T02:20:43.241Z,20.75
2016-07-15T02:21:43.242Z,20.78
2016-07-15T02:22:43.243Z,20.86
2016-07-15T02:23:43.240Z,20.83
2016-07-15T02:24:43.242Z,20.78
2016-07-15T02:25:43.246Z,20.85
2016-07-15T02:26:43.237Z,20.78
2016-07-15T02:27:43.242Z,20.81
2016-07-15T02:28:43.237Z,20.79
2016-07-15T02:29:43.237Z,20.78
2016-07-15T02:30:43.235Z,20.82
2016-07-15T02:31:43.233Z,20.75
2016-07-15T02:32:43.433Z,20.82
2016-07-15T02:33:43.229Z,20.79
2016-07-15T02:34:43.223Z,20.76
2016-07-15T02:35:43.222Z,20.75
2016-07-15T02:36:43.227Z,20.81
2016-07-15T02:37:43.233Z,20.81
2016-07-15T02:38:43.221Z,20.82
2016-07-15T02:39:43.226Z,20.78
2016-07-15T02:40:43.223Z,20.82
2016-07-15T02:41:43.222Z,20.75
2016-07-15T02:42:43.223Z,20.79
2016-07-15T02:43:43.217Z,20.79
2016-07-15T02:44:43.224Z,20.76
2016-07-15T02:45:43.215Z,20.88
2016-07-15T02:46:43.205Z,20.81
2016-07-15T02:47:43.216Z,20.86
2016-07-15T02:48:43.212Z,20.82
2016-07-15T02:49:43.407Z,20.85
2016-07-15T02:50:43.214Z,20.9
2016-07-15T02:51:43.205Z,20.81
2016-07-15T02:52:43.415Z,20.83
2016-07-15T02:53:43.208Z,20.81
2016-07-15T02:54:43.207Z,20.78
2016-07-15T02:55:43.204Z,20.81
2016-07-15T02:56:43.200Z,20.81
2016-07-15T02:57:43.205Z,20.75
2016-07-15T02:58:43.204Z,20.74
2016-07-15T02:59:43.199Z,20.76
2016-07-15T03:00:43.202Z,20.76
2016-07-15T03:01:43.197Z,20.68
2016-07-15T03:02:43.199Z,20.75
2016-07-15T03:03:43.199Z,20.71
2016-07-15T03:04:43.194Z,20.71
2016-07-15T03:05:43.197Z,20.64
2016-07-15T03:06:43.196Z,20.66
2016-07-15T03:07:43.197Z,20.63
2016-07-15T03:08:43.189Z,20.67
2016-07-15T03:09:43.186Z,20.6
2016-07-15T03:10:43.188Z,20.63
2016-07-15T03:11:43.181Z,20.64
2016-07-15T03:12:43.189Z,20.66
2016-07-15T03:13:43.182Z,20.72
2016-07-15T03:14:43.381Z,20.64
2016-07-15T03:15:43.197Z,20.63
2016-07-15T03:16:43.178Z,20.64
2016-07-15T03:17:43.178Z,20.61
2016-07-15T03:18:43.182Z,20.63
2016-07-15T03:19:43.173Z,20.63
2016-07-15T03:20:43.177Z,20.67
2016-07-15T03:21:43.168Z,20.63
2016-07-15T03:22:43.176Z,20.57
2016-07-15T03:23:43.175Z,20.66
2016-07-15T03:24:43.164Z,20.57
2016-07-15T03:25:43.169Z,20.54
2016-07-15T03:26:43.369Z,20.57
2016-07-15T03:27:43.166Z,20.51
2016-07-15T03:28:43.173Z,20.53
2016-07-15T03:29:43.162Z,20.56
2016-07-15T03:30:43.176Z,20.51
2016-07-15T03:31:43.164Z,20.51
2016-07-15T03:32:43.165Z,20.57
2016-07-15T03:33:43.166Z,20.56
2016-07-15T03:34:43.164Z,20.58
2016-07-15T03:35:43.156Z,20.56
2016-07-15T03:36:43.354Z,20.6
2016-07-15T03:37:43.149Z,20.51
2016-07-15T03:38:43.158Z,20.6
2016-07-15T03:39:43.153Z,20.56
2016-07-15T03:40:43.143Z,20.57
2016-07-15T03:41:43.151Z,20.56
2016-07-15T03:42:43.154Z,20.63
2016-07-15T03:43:43.148Z,20.63
2016-07-15T03:44:43.143Z,20.63
2016-07-15T03:45:43.145Z,20.63
2016-07-15T03:46:43.146Z,20.67
2016-07-15T03:47:43.147Z,20.67
2016-07-15T03:48:43.132Z,20.66
2016-07-15T03:49:43.139Z,20.64
2016-07-15T03:50:43.143Z,20.67
2016-07-15T03:51:43.337Z,20.68
2016-07-15T03:52:43.141Z,20.68
2016-07-15T03:53:43.138Z,20.64
2016-07-15T03:54:43.133Z,20.64
2016-07-15T03:55:43.135Z,20.54
2016-07-15T03:56:43.130Z,20.57
2016-07-15T03:57:43.130Z,20.56
2016-07-15T03:58:43.325Z,20.51
2016-07-15T03:59:43.133Z,20.56
2016-07-15T04:00:43.119Z,20.53
2016-07-15T04:01:43.120Z,20.57
2016-07-15T04:02:43.127Z,20.51
2016-07-15T04:03:43.120Z,20.37
2016-07-15T04:04:43.323Z,20.58
2016-07-15T04:05:43.125Z,20.44
2016-07-15T04:06:43.120Z,20.54
2016-07-15T04:07:43.130Z,20.49
2016-07-15T04:08:43.115Z,20.41
2016-07-15T04:09:43.113Z,20.42
2016-07-15T04:10:43.115Z,20.46
2016-07-15T04:11:43.103Z,20.42
2016-07-15T04:12:43.111Z,20.41
2016-07-15T04:13:43.108Z,20.42
2016-07-15T04:14:43.109Z,20.27
2016-07-15T04:15:43.119Z,20.35
2016-07-15T04:16:43.100Z,20.4
2016-07-15T04:17:43.094Z,20.27
2016-07-15T04:18:43.307Z,20.3
2016-07-15T04:19:43.109Z,20.35
2016-07-15T04:20:43.098Z,20.37
2016-07-15T04:21:43.110Z,20.35
2016-07-15T04:22:43.090Z,20.29
2016-07-15T04:23:43.094Z,20.4
2016-07-15T04:24:43.094Z,20.38
2016-07-15T04:25:43.092Z,20.4
2016-07-15T04:26:43.093Z,20.37
2016-07-15T04:27:43.088Z,20.42
2016-07-15T04:28:43.285Z,20.41
2016-07-15T04:29:43.089Z,20.44
2016-07-15T04:30:43.286Z,20.4
2016-07-15T04:31:43.286Z,20.42
2016-07-15T04:32:43.087Z,20.42
2016-07-15T04:33:43.088Z,20.42
2016-07-15T04:34:43.283Z,20.38
2016-07-15T04:35:43.282Z,20.35
2016-07-15T04:36:43.083Z,20.46
2016-07-15T04:37:43.080Z,20.44
2016-07-15T04:38:43.078Z,20.4
2016-07-15T04:39:43.281Z,20.48
2016-07-15T04:40:43.071Z,20.58
2016-07-15T04:41:43.074Z,20.44
2016-07-15T04:42:43.276Z,20.57
2016-07-15T04:43:43.070Z,20.41
2016-07-15T04:44:43.068Z,20.44
2016-07-15T04:45:43.070Z,20.54
2016-07-15T04:46:43.264Z,20.4
2016-07-15T04:47:43.072Z,20.46
2016-07-15T04:48:43.059Z,20.4
2016-07-15T04:49:43.068Z,20.41
2016-07-15T04:50:43.060Z,20.42
2016-07-15T04:51:43.066Z,20.42
2016-07-15T04:52:43.062Z,20.35
2016-07-15T04:53:43.061Z,20.37
2016-07-15T04:54:43.059Z,20.38
2016-07-15T04:55:43.055Z,20.32
2016-07-15T04:56:43.057Z,20.34
2016-07-15T04:57:43.059Z,20.23
2016-07-15T04:58:43.245Z,20.27
2016-07-15T04:59:43.053Z,20.26
2016-07-15T05:00:43.042Z,20.3
2016-07-15T05:01:43.047Z,20.34
2016-07-15T05:02:43.040Z,20.34
2016-07-15T05:03:43.052Z,20.22
2016-07-15T05:04:43.047Z,20.3
2016-07-15T05:05:43.044Z,20.26
2016-07-15T05:06:43.040Z,20.27
2016-07-15T05:07:43.041Z,20.25
2016-07-15T05:08:43.031Z,20.25
2016-07-15T05:09:43.036Z,20.26
2016-07-15T05:10:43.030Z,20.27
2016-07-15T05:11:43.233Z,20.25
2016-07-15T05:12:43.029Z,20.2
2016-07-15T05:13:43.030Z,20.2
2016-07-15T05:14:43.046Z,20.27
2016-07-15T05:15:43.027Z,20.26
2016-07-15T05:16:43.019Z,20.19
2016-07-15T05:17:43.031Z,20.2
2016-07-15T05:18:43.015Z,20.2
2016-07-15T05:19:43.026Z,20.26
2016-07-15T05:20:43.219Z,20.26
2016-07-15T05:21:43.016Z,20.19
2016-07-15T05:22:43.019Z,20.25
2016-07-15T05:23:43.012Z,20.16
2016-07-15T05:24:43.010Z,20.27
2016-07-15T05:25:43.008Z,20.27
2016-07-15T05:26:43.207Z,20.2
2016-07-15T05:27:43.010Z,20.2
2016-07-15T05:28:43.006Z,20.23
2016-07-15T05:29:43.005Z,20.25
2016-07-15T05:30:43.003Z,20.23
2016-07-15T05:31:43.005Z,20.29
2016-07-15T05:32:43.200Z,20.26
2016-07-15T05:33:43.006Z,20.26
2016-07-15T05:34:42.998Z,20.41
2016-07-15T05:35:42.999Z,20.34
2016-07-15T05:36:42.995Z,20.38
2016-07-15T05:37:42.995Z,20.37
2016-07-15T05:38:42.997Z,20.32
2016-07-15T05:39:43.184Z,20.38
2016-07-15T05:40:42.991Z,20.35
2016-07-15T05:41:42.992Z,20.3
2016-07-15T05:42:42.987Z,20.35
2016-07-15T05:43:42.978Z,20.38
2016-07-15T05:44:43.179Z,20.41
2016-07-15T05:45:42.979Z,20.46
2016-07-15T05:46:42.979Z,20.37
2016-07-15T05:47:42.980Z,20.4
2016-07-15T05:48:42.977Z,20.34
2016-07-15T05:49:43.178Z,20.35
2016-07-15T05:50:42.972Z,20.29
2016-07-15T05:51:42.983Z,20.3
2016-07-15T05:52:42.973Z,20.29
2016-07-15T05:53:43.173Z,20.25
2016-07-15T05:54:42.961Z,20.27
2016-07-15T05:55:42.969Z,20.25
2016-07-15T05:56:42.965Z,20.25
2016-07-15T05:57:42.967Z,20.26
2016-07-15T05:58:42.961Z,20.3
2016-07-15T05:59:42.958Z,20.29
2016-07-15T06:00:42.954Z,20.29
2016-07-15T06:01:42.955Z,20.22
2016-07-15T06:02:42.952Z,20.19
2016-07-15T06:03:42.959Z,20.19
2016-07-15T06:04:42.950Z,20.19
2016-07-15T06:05:42.950Z,20.18
2016-07-15T06:06:42.949Z,20.22
2016-07-15T06:07:42.951Z,20.15
2016-07-15T06:08:42.944Z,20.19
2016-07-15T06:09:42.951Z,20.07
2016-07-15T06:10:42.945Z,20.11
2016-07-15T06:11:42.939Z,20.07
2016-07-15T06:12:42.946Z,20.1
2016-07-15T06:13:42.937Z,20.1
2016-07-15T06:14:42.937Z,20.05
2016-07-15T06:15:42.937Z,20.08
2016-07-15T06:16:42.930Z,20.1
2016-07-15T06:17:42.938Z,20.05
2016-07-15T06:18:42.934Z,20.12
2016-07-15T06:19:42.930Z,20.11
2016-07-15T06:20:42.935Z,20.07
2016-07-15T06:21:42.924Z,20.11
2016-07-15T06:22:42.926Z,20.1
2016-07-15T06:23:42.918Z,20.11
2016-07-15T06:24:42.916Z,20.1
2016-07-15T06:25:42.921Z,20.05
2016-07-15T06:26:42.916Z,20.16
2016-07-15T06:27:42.926Z,20.15
2016-07-15T06:28:42.912Z,20.25
2016-07-15T06:29:42.912Z,20.22
2016-07-15T06:30:42.910Z,20.29
2016-07-15T06:31:42.917Z,20.22
2016-07-15T06:32:42.908Z,20.25
2016-07-15T06:33:42.911Z,20.23
2016-07-15T06:34:42.907Z,20.22
2016-07-15T06:35:42.908Z,20.23
2016-07-15T06:36:42.915Z,20.22
2016-07-15T06:37:42.900Z,20.29
2016-07-15T06:38:42.901Z,20.22
2016-07-15T06:39:42.896Z,20.27
2016-07-15T06:40:42.894Z,20.19
2016-07-15T06:41:42.888Z,20.25
2016-07-15T06:42:42.904Z,20.3
2016-07-15T06:43:42.889Z,20.19
2016-07-15T06:44:42.894Z,20.23
2016-07-15T06:45:43.093Z,20.27
2016-07-15T06:46:42.887Z,20.2
2016-07-15T06:47:42.880Z,20.26
2016-07-15T06:48:42.888Z,20.23
2016-07-15T06:49:42.879Z,20.23
2016-07-15T06:50:42.879Z,20.23
2016-07-15T06:51:42.884Z,20.23
2016-07-15T06:52:42.876Z,20.25
2016-07-15T06:53:42.876Z,20.2
2016-07-15T06:54:43.074Z,20.22
2016-07-15T06:55:42.879Z,20.18
2016-07-15T06:56:43.069Z,20.19
2016-07-15T06:57:42.872Z,20.23
2016-07-15T06:58:42.875Z,20.19
2016-07-15T06:59:42.868Z,20.26
2016-07-15T07:00:43.074Z,20.25
2016-07-15T07:01:42.859Z,20.16
2016-07-15T07:02:42.861Z,20.23
2016-07-15T07:03:42.864Z,20.16
2016-07-15T07:04:42.861Z,20.19
2016-07-15T07:05:43.060Z,20.18
2016-07-15T07:06:42.857Z,20.18
2016-07-15T07:07:42.857Z,20.16
2016-07-15T07:08:42.855Z,20.18
2016-07-15T07:09:42.863Z,20.16
2016-07-15T07:10:42.850Z,20.27
2016-07-15T07:11:42.854Z,20.22
2016-07-15T07:12:42.852Z,20.16
2016-07-15T07:13:42.846Z,20.22
2016-07-15T07:14:42.845Z,20.2
2016-07-15T07:15:42.852Z,20.2
2016-07-15T07:16:42.848Z,20.18
2016-07-15T07:17:42.846Z,20.19
2016-07-15T07:18:42.837Z,20.2
2016-07-15T07:19:42.837Z,20.19
2016-07-15T07:20:42.843Z,20.26
2016-07-15T07:21:42.838Z,20.26
2016-07-15T07:22:42.839Z,20.2
2016-07-15T07:23:42.836Z,20.2
2016-07-15T07:24:42.838Z,20.23
2016-07-15T07:25:42.825Z,20.25
2016-07-15T07:26:42.827Z,20.25
2016-07-15T07:27:42.825Z,20.29
2016-07-15T07:28:42.835Z,20.37
2016-07-15T07:29:42.826Z,20.27
2016-07-15T07:30:42.827Z,20.38
2016-07-15T07:31:42.831Z,20.44
2016-07-15T07:32:42.818Z,20.42
2016-07-15T07:33:42.808Z,20.4
2016-07-15T07:34:42.822Z,20.49
2016-07-15T07:35:42.818Z,20.58
2016-07-15T07:36:42.805Z,20.51
2016-07-15T07:37:43.015Z,20.54
2016-07-15T07:38:42.810Z,20.57
2016-07-15T07:39:43.012Z,20.56
2016-07-15T07:40:43.006Z,20.51
2016-07-15T07:41:42.803Z,20.48
2016-07-15T07:42:42.808Z,20.56
2016-07-15T07:43:42.805Z,20.61
2016-07-15T07:44:42.801Z,20.67
2016-07-15T07:45:42.801Z,20.64
2016-07-15T07:46:42.801Z,20.63
2016-07-15T07:47:43.000Z,20.6
2016-07-15T07:48:42.795Z,20.6
2016-07-15T07:49:42.797Z,20.66
2016-07-15T07:50:43.004Z,20.66
2016-07-15T07:51:42.791Z,20.63
2016-07-15T07:52:42.789Z,20.64
2016-07-15T07:53:42.790Z,20.54
2016-07-15T07:54:42.787Z,20.57
2016-07-15T07:55:42.787Z,20.56
2016-07-15T07:56:42.800Z,20.57
2016-07-15T07:57:42.784Z,20.61
2016-07-15T07:58:42.986Z,20.54
2016-07-15T07:59:42.783Z,20.51
2016-07-15T08:00:42.787Z,20.51
2016-07-15T08:01:42.784Z,20.41
2016-07-15T08:02:43.097Z,20.38
2016-07-15T08:03:43.057Z,20.42
2016-07-15T08:04:43.212Z,20.53
2016-07-15T08:05:43.313Z,20.4
2016-07-15T08:06:45.340Z,20.44
2016-07-15T08:07:44.402Z,20.58
2016-07-15T08:08:46.608Z,20.58
2016-07-15T08:09:43.195Z,20.54
2016-07-15T08:10:42.903Z,20.51
2016-07-15T08:11:44.177Z,20.44
2016-07-15T08:12:42.872Z,20.54
2016-07-15T08:13:44.590Z,20.49
2016-07-15T08:14:44.031Z,20.53
2016-07-15T08:15:43.408Z,20.48
2016-07-15T08:16:42.803Z,20.56
2016-07-15T08:17:42.789Z,20.68
2016-07-15T08:18:43.773Z,20.75
2016-07-15T08:19:42.968Z,20.76
2016-07-15T08:20:42.749Z,20.76
2016-07-15T08:21:43.536Z,20.75
2016-07-15T08:22:42.878Z,20.81
2016-07-15T08:23:42.750Z,20.9
2016-07-15T08:24:42.775Z,20.93
2016-07-15T08:25:43.140Z,20.91
2016-07-15T08:26:42.749Z,20.9
2016-07-15T08:27:42.930Z,20.96
2016-07-15T08:28:42.768Z,20.9
2016-07-15T08:29:42.767Z,20.9
2016-07-15T08:30:42.743Z,21.01
2016-07-15T08:31:43.102Z,20.91
2016-07-15T08:32:42.795Z,20.93
2016-07-15T08:33:43.009Z,20.97
2016-07-15T08:34:43.071Z,20.88
2016-07-15T08:35:42.747Z,20.82
2016-07-15T08:36:42.736Z,20.83
2016-07-15T08:37:42.942Z,20.78
2016-07-15T08:38:42.736Z,20.88
2016-07-15T08:39:42.736Z,20.81
2016-07-15T08:40:42.728Z,20.85
2016-07-15T08:41:42.732Z,20.88
2016-07-15T08:42:42.729Z,20.82
2016-07-15T08:43:42.925Z,20.91
2016-07-15T08:44:42.723Z,20.9
2016-07-15T08:45:42.724Z,20.85
2016-07-15T08:46:42.718Z,20.81
2016-07-15T08:47:42.838Z,20.93
2016-07-15T08:48:42.743Z,20.79
2016-07-15T08:49:42.714Z,20.86
2016-07-15T08:50:42.798Z,20.83
2016-07-15T08:51:42.714Z,20.82
2016-07-15T08:52:42.710Z,20.81
2016-07-15T08:53:42.714Z,20.83
2016-07-15T08:54:43.190Z,20.76
2016-07-15T08:55:42.907Z,20.83
2016-07-15T08:56:42.733Z,20.91
2016-07-15T08:57:42.707Z,20.85
2016-07-15T08:58:42.711Z,20.85
2016-07-15T08:59:42.916Z,20.82
2016-07-15T09:00:42.701Z,20.78
2016-07-15T09:01:42.702Z,20.79
2016-07-15T09:02:42.901Z,20.85
2016-07-15T09:03:42.711Z,20.79
2016-07-15T09:04:42.696Z,20.88
2016-07-15T09:05:42.701Z,20.82
2016-07-15T09:06:42.698Z,20.79
2016-07-15T09:07:42.693Z,20.81
2016-07-15T09:08:42.683Z,20.88
2016-07-15T09:09:42.694Z,20.83
2016-07-15T09:10:42.708Z,20.83
2016-07-15T09:11:42.689Z,20.79
2016-07-15T09:12:42.924Z,20.93
2016-07-15T09:13:42.677Z,20.98
2016-07-15T09:14:42.683Z,21.03
2016-07-15T09:15:42.696Z,21.06
2016-07-15T09:16:42.686Z,21.04
2016-07-15T09:17:42.679Z,21.22
2016-07-15T09:18:42.681Z,21.21
2016-07-15T09:19:42.690Z,21.27
2016-07-15T09:20:42.742Z,21.19
2016-07-15T09:21:42.686Z,21.15
2016-07-15T09:22:42.671Z,21.19
2016-07-15T09:23:42.666Z,21.18
2016-07-15T09:24:42.895Z,21.16
2016-07-15T09:25:42.663Z,21.16
2016-07-15T09:26:42.692Z,21.21
2016-07-15T09:27:42.655Z,21.13
2016-07-15T09:28:42.666Z,21.16
2016-07-15T09:29:42.659Z,21.25
2016-07-15T09:30:42.722Z,21.31
2016-07-15T09:31:42.652Z,21.28
2016-07-15T09:32:42.855Z,21.27
2016-07-15T09:33:42.650Z,21.27
2016-07-15T09:34:42.653Z,21.31
2016-07-15T09:35:42.853Z,21.34
2016-07-15T09:36:42.649Z,21.31
2016-07-15T09:37:42.646Z,21.31
2016-07-15T09:38:42.650Z,21.28
2016-07-15T09:39:42.645Z,21.21
2016-07-15T09:40:42.848Z,21.28
2016-07-15T09:41:42.637Z,21.31
2016-07-15T09:42:42.650Z,21.3
2016-07-15T09:43:42.648Z,21.27
2016-07-15T09:44:42.631Z,21.31
2016-07-15T09:45:42.631Z,21.31
2016-07-15T09:46:42.636Z,21.28
2016-07-15T09:47:42.628Z,21.19
2016-07-15T09:48:42.634Z,21.34
2016-07-15T09:49:42.636Z,21.31
2016-07-15T09:50:42.627Z,21.36
2016-07-15T09:53:42.679Z,21.45
2016-07-15T09:54:42.620Z,21.45
2016-07-15T09:55:42.620Z,21.52
2016-07-15T09:56:42.616Z,21.59
2016-07-15T09:57:43.628Z,21.55
2016-07-15T09:58:42.652Z,21.62
2016-07-15T09:59:42.623Z,21.67
2016-07-15T10:00:42.657Z,21.61
2016-07-15T10:01:42.625Z,21.64
2016-07-15T10:02:42.615Z,21.61
2016-07-15T10:03:42.614Z,21.61
2016-07-15T10:04:42.614Z,21.73
2016-07-15T10:05:42.611Z,21.74
2016-07-15T10:06:42.604Z,21.74
2016-07-15T10:07:42.814Z,21.68
2016-07-15T10:08:42.605Z,21.71
2016-07-15T10:09:42.610Z,21.73
2016-07-15T10:10:42.613Z,21.66
2016-07-15T10:11:42.607Z,21.7
2016-07-15T10:12:42.600Z,21.68
2016-07-15T10:13:42.593Z,21.71
2016-07-15T10:14:42.600Z,21.71
2016-07-15T10:15:42.598Z,21.7
2016-07-15T10:16:42.597Z,21.66
2016-07-15T10:17:42.587Z,21.61
2016-07-15T10:18:42.590Z,21.62
2016-07-15T10:19:42.596Z,21.74
2016-07-15T10:20:42.590Z,21.62
2016-07-15T10:21:42.590Z,21.73
2016-07-15T10:22:42.613Z,21.71
2016-07-15T10:23:42.623Z,21.7
2016-07-15T10:24:43.948Z,21.74
2016-07-15T10:25:42.765Z,21.74
2016-07-15T10:26:42.745Z,21.73
2016-07-15T10:27:42.874Z,21.68
2016-07-15T10:28:42.581Z,21.66
2016-07-15T10:29:42.603Z,21.73
2016-07-15T10:30:42.743Z,21.73
2016-07-15T10:31:42.591Z,21.71
2016-07-15T10:32:42.618Z,21.64
2016-07-15T10:33:42.621Z,21.56
2016-07-15T10:34:43.536Z,21.66
2016-07-15T10:35:42.748Z,21.59
2016-07-15T10:36:42.742Z,21.71
2016-07-15T10:37:42.565Z,21.7
2016-07-15T10:38:42.554Z,21.66
2016-07-15T10:39:42.668Z,21.71
2016-07-15T10:40:42.721Z,21.7
2016-07-15T10:41:42.973Z,21.76
2016-07-15T10:42:43.292Z,21.7
2016-07-15T10:43:42.757Z,21.82
2016-07-15T10:44:42.574Z,21.78
2016-07-15T10:45:42.600Z,21.74
2016-07-15T10:46:42.624Z,21.64
2016-07-15T10:47:43.661Z,21.64
2016-07-15T10:48:42.562Z,21.83
2016-07-15T10:49:42.557Z,21.76
2016-07-15T10:50:42.544Z,21.73
2016-07-15T10:51:42.610Z,21.78
2016-07-15T10:52:42.556Z,21.77
2016-07-15T10:53:42.569Z,21.8
2016-07-15T10:54:42.746Z,21.82
2016-07-15T10:55:42.540Z,21.8
2016-07-15T10:56:42.537Z,21.85
2016-07-15T10:57:42.540Z,21.82
2016-07-15T10:58:42.531Z,21.89
2016-07-15T10:59:42.955Z,21.8
2016-07-15T11:00:42.528Z,21.85
2016-07-15T11:01:42.561Z,21.8
2016-07-15T11:02:42.524Z,21.78
2016-07-15T11:03:42.732Z,21.82
2016-07-15T11:04:42.542Z,21.89
2016-07-15T11:05:42.552Z,21.83
2016-07-15T11:06:42.558Z,21.85
2016-07-15T11:07:42.524Z,21.86
2016-07-15T11:08:42.530Z,21.85
2016-07-15T11:09:42.521Z,21.92
2016-07-15T11:10:42.527Z,21.92
2016-07-15T11:11:42.512Z,21.89
2016-07-15T11:12:42.514Z,21.89
2016-07-15T11:13:42.839Z,21.85
2016-07-15T11:14:42.508Z,21.89
2016-07-15T11:15:42.514Z,21.86
2016-07-15T11:16:42.506Z,21.9
2016-07-15T11:17:42.504Z,21.99
2016-07-15T11:18:42.508Z,21.9
2016-07-15T11:19:42.501Z,21.94
2016-07-15T11:20:42.505Z,21.86
2016-07-15T11:21:42.505Z,21.83
2016-07-15T11:22:42.503Z,21.78
2016-07-15T11:23:42.700Z,21.86
2016-07-15T11:24:42.498Z,21.86
2016-07-15T11:25:42.493Z,21.9
2016-07-15T11:26:42.497Z,21.89
2016-07-15T11:27:42.494Z,21.9
2016-07-15T11:28:42.491Z,21.94
2016-07-15T11:29:42.481Z,21.89
2016-07-15T11:30:42.490Z,21.96
2016-07-15T11:31:42.481Z,21.92
2016-07-15T11:32:42.532Z,21.96
2016-07-15T11:33:42.478Z,21.94
2016-07-15T11:34:42.479Z,21.97
2016-07-15T11:35:42.477Z,22.02
2016-07-15T11:36:42.480Z,21.97
2016-07-15T11:37:42.680Z,21.96
2016-07-15T11:38:42.472Z,21.96
2016-07-15T11:39:42.467Z,21.97
2016-07-15T11:40:42.674Z,22.04
2016-07-15T11:41:42.469Z,22
2016-07-15T11:42:42.482Z,21.93
2016-07-15T11:43:42.664Z,21.99
2016-07-15T11:44:42.461Z,22.11
2016-07-15T11:45:42.464Z,22.12
2016-07-15T11:46:42.473Z,22.11
2016-07-15T11:47:42.465Z,22.08
2016-07-15T11:48:42.465Z,22.2
2016-07-15T11:49:42.452Z,22.09
2016-07-15T11:50:42.663Z,22.11
2016-07-15T11:51:42.458Z,22.11
2016-07-15T11:52:42.451Z,22.11
2016-07-15T11:53:42.457Z,22.14
2016-07-15T11:54:42.650Z,22.09
2016-07-15T11:55:42.446Z,22.16
2016-07-15T11:56:42.849Z,22.11
2016-07-15T11:57:42.443Z,22.14
2016-07-15T11:58:42.442Z,22.08
2016-07-15T11:59:42.436Z,22.12
2016-07-15T12:00:42.446Z,22.04
2016-07-15T12:01:42.436Z,22.08
2016-07-15T12:02:42.436Z,22.08
2016-07-15T12:03:42.442Z,22.14
2016-07-15T12:04:42.433Z,22.15
2016-07-15T12:05:42.435Z,22.11
2016-07-15T12:06:42.435Z,22.07
2016-07-15T12:07:42.426Z,22.16
2016-07-15T12:08:42.429Z,22.16
2016-07-15T12:09:42.624Z,22.09
2016-07-15T12:10:42.626Z,22.12
2016-07-15T12:11:42.431Z,22.14
2016-07-15T12:12:42.426Z,22.2
2016-07-15T12:13:42.424Z,22.16
2016-07-15T12:14:42.427Z,22.16
2016-07-15T12:15:42.413Z,22.2
2016-07-15T12:16:42.420Z,22.23
2016-07-15T12:17:42.411Z,22.24
2016-07-15T12:18:42.414Z,22.2
2016-07-15T12:19:42.416Z,22.27
2016-07-15T12:20:42.413Z,22.26
2016-07-15T12:21:42.408Z,22.26
2016-07-15T12:22:42.407Z,22.24
2016-07-15T12:23:42.407Z,22.24
2016-07-15T12:24:42.408Z,22.27
2016-07-15T12:25:42.405Z,22.26
2016-07-15T12:26:42.405Z,22.23
2016-07-15T12:27:42.399Z,22.23
2016-07-15T12:28:42.409Z,22.26
2016-07-15T12:29:42.402Z,22.26
2016-07-15T12:30:42.399Z,22.29
2016-07-15T12:31:42.401Z,22.33
2016-07-15T12:32:42.449Z,22.24
2016-07-15T12:33:42.411Z,22.29
2016-07-15T12:34:42.591Z,22.27
2016-07-15T12:35:42.392Z,22.3
2016-07-15T12:36:42.396Z,22.34
2016-07-15T12:37:42.403Z,22.3
2016-07-15T12:38:42.395Z,22.44
2016-07-15T12:39:42.387Z,22.41
2016-07-15T12:40:42.381Z,22.31
2016-07-15T12:41:42.599Z,22.41
2016-07-15T12:42:42.385Z,22.39
2016-07-15T12:43:42.384Z,22.44
2016-07-15T12:44:42.383Z,22.34
2016-07-15T12:45:42.579Z,22.39
2016-07-15T12:46:42.386Z,22.34
2016-07-15T12:47:42.377Z,22.41
2016-07-15T12:48:42.375Z,22.42
2016-07-15T12:49:42.379Z,22.39
2016-07-15T12:50:42.574Z,22.44
2016-07-15T12:51:42.377Z,22.44
2016-07-15T12:52:42.574Z,22.38
2016-07-15T12:53:42.368Z,22.34
2016-07-15T12:54:42.382Z,22.41
2016-07-15T12:55:42.572Z,22.33
2016-07-15T12:56:42.370Z,22.41
2016-07-15T12:57:42.373Z,22.3